Portada
METAR-TAF:

METAR-TAF

Aeroports :

Estocolm-Arlanda, Suècia

latitud: 59-39N, longitud: 017-57E, altitud: 38 m

Observació

L'informe es va fer fa 24 minuts, a les 20:20 UTC
Vent 8 kt del Sud
Temperatura 14°C
Humitat 58%
Pressió 1029 hPa
Visibilitat 10 km o més
sense núvols per sota de 1500 mi sense presència de cumulonimbus.

METAR: ESSA 262020Z 18008KT CAVOK 14/06 Q1029 NOSIG

Hora: 22:44 (20:44 UTC)

Pronòstic

L'informe es va fer fa 3 hores i 14 minuts, a les 17:30 UTC
Pronòstic vàlid del 26 a les 18 UTC al 27 a les 18 UTC
Vent 6 kt del Sud-Oest
Visibilitat 10 km o més
sense núvols per sota de 1500 mi sense presència de cumulonimbus.
Evolucionant progressivament
l' 27 a les 11 UTC al 27 a les 14 UTC
Vent 10 kt del Nord
Temporalment
l' 27 a les 11 UTC al 27 a les 18 UTC
Cel ennuvolat a una alçada de 3500 ft, Cumulonimbus.
xàfecs de pluja

TAF: ESSA 261730Z 2618/2718 22006KT CAVOK BECMG 2711/2714 01010KT TEMPO 2711/2718 SHRA BKN035CB

Observacions i pronòstics meteorològics de més de 4000 aeroports (METAR i TAF).

Les estacions disponibles són els punts grocs i vermells al mapa.

Posi el ratolí al punt desitjat per veure el nom de l'estació.

Feu clic per veure les observacions i els pronòstics meteorològics.

Per canviar el mapa: feu clic els botons verds amb una creu de color negre per apropar; al botó verd amb un guió per allunyar la imatge; o en les fletxes verdes per a mapes adjacents.


METAR-TAF: